createdAt,value
2023-06-12T00:00:52.609Z,38.39
2023-06-12T00:03:25.813Z,38.09
2023-06-12T00:06:00.132Z,37.60
2023-06-12T00:08:32.608Z,38.21
2023-06-12T00:11:06.104Z,38.13
2023-06-12T00:13:39.682Z,38.49
2023-06-12T00:16:13.500Z,38.10
2023-06-12T00:18:44.178Z,38.53
2023-06-12T00:21:15.905Z,37.89
2023-06-12T00:23:46.456Z,38.14
2023-06-12T00:26:16.822Z,37.91
2023-06-12T00:28:51.248Z,37.80
2023-06-12T00:31:21.507Z,38.47
2023-06-12T00:33:52.310Z,38.85
2023-06-12T00:36:22.426Z,38.25
2023-06-12T00:38:52.996Z,38.08
2023-06-12T00:41:24.404Z,38.41
2023-06-12T00:43:57.258Z,37.93
2023-06-12T00:46:28.244Z,38.61
2023-06-12T00:48:58.915Z,38.22
2023-06-12T00:51:29.681Z,38.64
2023-06-12T00:53:59.905Z,38.24
2023-06-12T00:56:29.995Z,38.07
2023-06-12T00:59:03.585Z,38.46
2023-06-12T01:01:34.240Z,38.48
2023-06-12T01:04:04.628Z,38.23
2023-06-12T01:06:48.524Z,38.56
2023-06-12T01:09:36.757Z,38.41
2023-06-12T01:12:11.550Z,38.40
2023-06-12T01:14:48.754Z,38.22
2023-06-12T01:17:20.482Z,38.58
2023-06-12T01:19:51.812Z,38.60
2023-06-12T01:22:28.619Z,38.98
2023-06-12T01:25:27.733Z,38.88
2023-06-12T01:28:12.700Z,38.69
2023-06-12T01:31:00.683Z,39.09
2023-06-12T01:33:42.692Z,38.75
2023-06-12T01:36:20.795Z,39.93
2023-06-12T01:38:59.470Z,39.15
2023-06-12T01:41:33.780Z,39.51
2023-06-12T01:44:12.308Z,39.54
2023-06-12T01:46:43.621Z,39.99
2023-06-12T01:49:16.451Z,39.88
2023-06-12T01:51:48.815Z,40.91
2023-06-12T01:54:20.126Z,40.47
2023-06-12T01:56:51.189Z,40.07
2023-06-12T01:59:21.955Z,40.23
2023-06-12T02:01:52.775Z,40.03
2023-06-12T02:04:25.598Z,40.89
2023-06-12T02:06:56.397Z,40.63
2023-06-12T02:09:26.532Z,41.24
2023-06-12T02:12:00.036Z,41.15
2023-06-12T02:14:31.125Z,40.82
2023-06-12T02:17:03.800Z,41.18
2023-06-12T02:19:37.689Z,41.98
2023-06-12T02:22:08.290Z,41.63
2023-06-12T02:24:40.713Z,41.13
2023-06-12T02:27:11.569Z,41.52
2023-06-12T02:29:41.762Z,41.53
2023-06-12T02:32:13.665Z,41.17
2023-06-12T02:34:46.621Z,41.55
2023-06-12T02:37:16.900Z,42.02
2023-06-12T02:39:49.657Z,41.94
2023-06-12T02:42:20.291Z,41.94
2023-06-12T02:44:50.734Z,42.37
2023-06-12T02:47:21.203Z,42.01
2023-06-12T02:49:54.422Z,42.73
2023-06-12T02:52:30.918Z,42.34
2023-06-12T02:55:01.477Z,42.84
2023-06-12T02:57:34.320Z,42.67
2023-06-12T03:00:04.597Z,42.00
2023-06-12T03:02:44.355Z,42.07
2023-06-12T03:05:22.210Z,42.35
2023-06-12T03:07:54.070Z,42.90
2023-06-12T03:10:24.194Z,43.02
2023-06-12T03:12:54.338Z,43.18
2023-06-12T03:15:25.634Z,42.81
2023-06-12T03:17:55.755Z,43.18
2023-06-12T03:20:29.060Z,42.79
2023-06-12T03:22:59.240Z,42.86
2023-06-12T03:25:29.580Z,42.98
2023-06-12T03:27:59.811Z,43.53
2023-06-12T03:30:30.002Z,43.45
2023-06-12T03:33:00.480Z,43.85
2023-06-12T03:35:34.270Z,44.03
2023-06-12T03:38:04.733Z,43.44
2023-06-12T03:40:34.997Z,44.48
2023-06-12T03:43:05.455Z,44.21
2023-06-12T03:45:35.687Z,44.47
2023-06-12T03:48:05.934Z,44.33
2023-06-12T03:50:38.761Z,44.58
2023-06-12T03:53:08.950Z,44.63
2023-06-12T03:55:40.206Z,44.41
2023-06-12T03:58:11.601Z,45.00
2023-06-12T04:00:41.818Z,45.23
2023-06-12T04:03:12.110Z,45.57
2023-06-12T04:05:44.996Z,46.02
2023-06-12T04:08:15.250Z,46.00
2023-06-12T04:10:45.944Z,45.68
2023-06-12T04:13:17.189Z,46.05
2023-06-12T04:15:48.763Z,45.50
2023-06-12T04:18:19.708Z,45.89
2023-06-12T04:20:52.431Z,46.69
2023-06-12T04:23:22.564Z,46.03
2023-06-12T04:25:52.884Z,46.14
2023-06-12T04:28:23.142Z,45.81
2023-06-12T04:30:53.245Z,46.42
2023-06-12T04:33:25.369Z,45.66
2023-06-12T04:35:58.866Z,45.94
2023-06-12T04:38:31.934Z,45.93
2023-06-12T04:41:03.994Z,45.62
2023-06-12T04:43:34.087Z,45.13
2023-06-12T04:46:04.514Z,45.83
2023-06-12T04:48:34.658Z,46.01
2023-06-12T04:51:07.448Z,46.12
2023-06-12T04:53:41.264Z,46.55
2023-06-12T04:56:14.271Z,46.07
2023-06-12T04:58:45.996Z,45.87
2023-06-12T05:01:16.699Z,45.50
2023-06-12T05:03:47.234Z,46.37
2023-06-12T05:06:20.126Z,47.27
2023-06-12T05:08:51.687Z,46.83
2023-06-12T05:11:21.854Z,45.61
2023-06-12T05:13:52.584Z,45.46
2023-06-12T05:16:22.754Z,45.60
2023-06-12T05:18:53.800Z,45.59
2023-06-12T05:21:27.172Z,45.69
2023-06-12T05:23:57.594Z,45.63
2023-06-12T05:26:28.440Z,45.89
2023-06-12T05:28:58.719Z,45.41
2023-06-12T05:31:30.502Z,45.78
2023-06-12T05:34:01.175Z,45.55
2023-06-12T05:36:34.661Z,45.86
2023-06-12T05:39:14.190Z,46.28
2023-06-12T05:41:45.821Z,46.86
2023-06-12T05:44:16.507Z,46.88
2023-06-12T05:46:49.661Z,46.32
2023-06-12T05:49:22.517Z,46.68
2023-06-12T05:51:55.983Z,46.77
2023-06-12T05:54:26.390Z,46.82
2023-06-12T05:57:00.370Z,46.60
2023-06-12T05:59:31.223Z,47.25
2023-06-12T06:02:02.724Z,47.19
2023-06-12T06:04:33.920Z,46.78
2023-06-12T06:07:17.680Z,46.00
2023-06-12T06:09:48.955Z,46.39
2023-06-12T06:12:20.096Z,46.56
2023-06-12T06:14:50.460Z,46.19
2023-06-12T06:17:21.757Z,46.61
2023-06-12T06:19:53.630Z,46.76
2023-06-12T06:22:27.548Z,46.07
2023-06-12T06:24:57.699Z,45.65
2023-06-12T06:27:27.983Z,46.24
2023-06-12T06:29:58.062Z,45.79
2023-06-12T06:32:28.281Z,45.84
2023-06-12T06:34:59.155Z,45.54
2023-06-12T06:37:31.958Z,45.47
2023-06-12T06:40:02.166Z,45.33
2023-06-12T06:42:32.668Z,45.73
2023-06-12T06:45:09.957Z,45.74
2023-06-12T06:47:40.847Z,45.50
2023-06-12T06:50:14.200Z,46.01
2023-06-12T06:52:48.067Z,45.87
2023-06-12T06:55:19.168Z,45.89
2023-06-12T06:57:52.112Z,46.44
2023-06-12T07:00:24.787Z,46.16
2023-06-12T07:02:55.100Z,45.55
2023-06-12T07:05:28.588Z,45.60
2023-06-12T07:08:02.984Z,45.62
2023-06-12T07:10:37.093Z,46.08
2023-06-12T07:13:08.025Z,46.09
2023-06-12T07:15:44.807Z,46.02
2023-06-12T07:18:15.184Z,46.33
2023-06-12T07:20:46.646Z,45.42
2023-06-12T07:23:19.463Z,45.67
2023-06-12T07:25:49.853Z,45.17
2023-06-12T07:28:20.650Z,45.20
2023-06-12T07:30:51.594Z,44.91
2023-06-12T07:33:22.202Z,45.04
2023-06-12T07:35:52.422Z,45.18
2023-06-12T07:38:25.422Z,45.05
2023-06-12T07:40:55.793Z,44.59
2023-06-12T07:43:26.177Z,44.40
2023-06-12T07:45:57.259Z,44.44
2023-06-12T07:48:27.634Z,44.44
2023-06-12T07:50:58.343Z,44.04
2023-06-12T07:53:38.710Z,44.20
2023-06-12T07:56:17.771Z,44.66
2023-06-12T07:58:50.880Z,43.99
2023-06-12T08:01:23.813Z,43.62
2023-06-12T08:03:57.725Z,42.74
2023-06-12T08:06:29.058Z,41.96
2023-06-12T08:09:01.820Z,42.44
2023-06-12T08:11:32.274Z,42.38
2023-06-12T08:14:02.492Z,43.05
2023-06-12T08:16:35.636Z,42.52
2023-06-12T08:19:07.372Z,42.05
2023-06-12T08:21:39.205Z,41.97
2023-06-12T08:24:14.357Z,42.16
2023-06-12T08:26:44.981Z,41.82
2023-06-12T08:29:16.015Z,41.79
2023-06-12T08:31:46.920Z,41.04
2023-06-12T08:34:17.235Z,40.29
2023-06-12T08:36:47.630Z,41.00
2023-06-12T08:39:20.548Z,42.14
2023-06-12T08:42:07.277Z,40.85
2023-06-12T08:44:38.830Z,39.40
2023-06-12T08:47:11.173Z,39.37
2023-06-12T08:49:42.042Z,38.70
2023-06-12T08:52:12.205Z,39.18
2023-06-12T08:54:47.070Z,38.52
2023-06-12T08:57:17.197Z,38.27
2023-06-12T08:59:47.295Z,38.72
2023-06-12T09:02:20.143Z,38.88
2023-06-12T09:05:04.015Z,38.47
2023-06-12T09:07:41.050Z,38.09
2023-06-12T09:10:15.655Z,37.02
2023-06-12T09:12:46.736Z,37.23
2023-06-12T09:15:21.988Z,37.60
2023-06-12T09:17:54.226Z,37.40
2023-06-12T09:20:40.630Z,37.28
2023-06-12T09:23:12.239Z,36.71
2023-06-12T09:26:05.137Z,36.74
2023-06-12T09:28:39.126Z,36.05
2023-06-12T09:31:10.242Z,36.51
2023-06-12T09:33:43.523Z,36.04
2023-06-12T09:36:15.535Z,35.44
2023-06-12T09:38:46.339Z,35.75
2023-06-12T09:41:19.065Z,36.59
2023-06-12T09:43:49.171Z,37.23
2023-06-12T09:46:19.293Z,34.75
2023-06-12T09:48:49.363Z,35.02
2023-06-12T09:51:21.492Z,34.05
2023-06-12T09:53:55.240Z,34.02
2023-06-12T09:56:29.630Z,33.51
2023-06-12T09:59:03.636Z,33.76
2023-06-12T10:01:41.073Z,34.00
2023-06-12T10:04:16.917Z,33.72
2023-06-12T10:06:48.441Z,34.51
2023-06-12T10:09:19.465Z,34.12
2023-06-12T10:11:54.242Z,33.22
2023-06-12T10:14:28.129Z,33.35
2023-06-12T10:17:00.209Z,33.21
2023-06-12T10:19:30.332Z,33.02
2023-06-12T10:22:01.097Z,33.83
2023-06-12T10:24:31.936Z,33.49
2023-06-12T10:27:05.664Z,33.04
2023-06-12T10:29:37.904Z,33.17
2023-06-12T10:32:09.474Z,33.53
2023-06-12T10:34:43.922Z,34.63
2023-06-12T10:37:28.867Z,35.60
2023-06-12T10:40:19.421Z,34.51
2023-06-12T10:43:05.739Z,34.14
2023-06-12T10:45:39.956Z,34.03
2023-06-12T10:48:23.822Z,33.61
2023-06-12T10:51:00.247Z,34.57
2023-06-12T10:53:33.285Z,33.77
2023-06-12T10:56:13.542Z,33.00
2023-06-12T10:58:49.201Z,31.82
2023-06-12T11:01:21.959Z,31.31
2023-06-12T11:03:55.857Z,31.51
2023-06-12T11:06:35.212Z,31.12
2023-06-12T11:09:13.689Z,31.19
2023-06-12T11:11:52.031Z,31.21
2023-06-12T11:14:29.834Z,30.50
2023-06-12T11:17:03.306Z,30.30
2023-06-12T11:19:34.852Z,30.86
2023-06-12T11:22:09.437Z,31.21
2023-06-12T11:24:39.682Z,29.92
2023-06-12T11:27:10.242Z,28.81
2023-06-12T11:29:56.620Z,28.46
2023-06-12T11:32:34.152Z,28.41
2023-06-12T11:35:04.578Z,28.38
2023-06-12T11:37:35.158Z,28.18
2023-06-12T11:40:10.563Z,29.14
2023-06-12T11:42:43.232Z,29.40
2023-06-12T11:45:18.862Z,29.23
2023-06-12T11:50:24.154Z,28.37
2023-06-12T11:52:54.649Z,28.51
2023-06-12T11:57:57.726Z,27.31
2023-06-12T12:00:31.701Z,27.71
2023-06-12T12:03:03.540Z,28.58
2023-06-12T12:05:38.882Z,28.41
2023-06-12T12:08:11.546Z,27.95
2023-06-12T12:10:45.541Z,27.76
2023-06-12T12:13:15.987Z,27.55
2023-06-12T12:15:48.730Z,27.57
2023-06-12T12:18:19.636Z,27.19
2023-06-12T12:20:53.399Z,26.47
2023-06-12T12:23:28.233Z,26.37
2023-06-12T12:25:59.322Z,26.60
2023-06-12T12:28:29.392Z,26.23
2023-06-12T12:31:02.029Z,26.32
2023-06-12T12:33:32.088Z,26.84
2023-06-12T12:36:02.290Z,26.24
2023-06-12T12:38:34.294Z,25.98
2023-06-12T12:41:04.298Z,26.57
2023-06-12T12:43:34.375Z,26.12
2023-06-12T12:46:07.028Z,26.00
2023-06-12T12:48:37.874Z,25.59
2023-06-12T12:51:10.576Z,25.16
2023-06-12T12:53:41.838Z,25.36
2023-06-12T12:56:12.325Z,24.91
2023-06-12T12:58:43.839Z,24.68
2023-06-12T13:01:16.524Z,24.54
2023-06-12T13:03:46.746Z,25.01
2023-06-12T13:06:16.954Z,25.25
2023-06-12T13:08:46.927Z,25.44
2023-06-12T13:11:17.055Z,25.17
2023-06-12T13:13:47.071Z,25.29
2023-06-12T13:16:19.992Z,24.80
2023-06-12T13:18:50.138Z,24.87
2023-06-12T13:21:20.273Z,25.62
2023-06-12T13:23:50.421Z,24.98
2023-06-12T13:26:20.513Z,24.31
2023-06-12T13:28:53.142Z,24.00
2023-06-12T13:31:25.824Z,23.98
2023-06-12T13:33:55.876Z,23.79
2023-06-12T13:36:26.169Z,24.75
2023-06-12T13:38:56.826Z,24.13
2023-06-12T13:41:27.006Z,24.15
2023-06-12T13:43:57.179Z,24.12
2023-06-12T13:46:30.124Z,24.17
2023-06-12T13:49:00.457Z,23.93
2023-06-12T13:51:30.566Z,23.74
2023-06-12T13:54:00.635Z,23.77
2023-06-12T13:56:31.908Z,23.94
2023-06-12T13:59:02.340Z,23.48
2023-06-12T14:01:35.050Z,23.26
2023-06-12T14:04:05.261Z,23.31
2023-06-12T14:06:36.006Z,23.77
2023-06-12T14:09:06.155Z,23.56
2023-06-12T14:11:36.678Z,23.58
2023-06-12T14:14:06.909Z,23.67
2023-06-12T14:16:40.971Z,23.82
2023-06-12T14:19:11.101Z,23.11
2023-06-12T14:21:41.185Z,23.13
2023-06-12T14:24:20.613Z,23.39
2023-06-12T14:27:01.472Z,23.43
2023-06-12T14:29:31.538Z,22.94
2023-06-12T14:32:04.432Z,22.45
2023-06-12T14:34:34.682Z,22.47
2023-06-12T14:37:04.884Z,22.58
2023-06-12T14:39:34.973Z,22.66
2023-06-12T14:42:05.072Z,23.12
2023-06-12T14:44:35.115Z,22.69
2023-06-12T14:47:09.073Z,22.86
2023-06-12T14:49:39.298Z,22.58
2023-06-12T14:52:23.869Z,22.65
2023-06-12T14:55:01.399Z,22.18
2023-06-12T14:57:31.721Z,22.79
2023-06-12T15:00:01.782Z,21.96
2023-06-12T15:02:34.696Z,22.45
2023-06-12T15:05:04.702Z,22.20
2023-06-12T15:07:34.727Z,22.42
2023-06-12T15:10:04.950Z,22.33
2023-06-12T15:12:35.024Z,22.83
2023-06-12T15:15:05.075Z,21.93
2023-06-12T15:17:37.748Z,21.87
2023-06-12T15:20:09.446Z,22.29
2023-06-12T15:22:39.418Z,22.00
2023-06-12T15:25:10.050Z,21.76
2023-06-12T15:27:40.295Z,21.85
2023-06-12T15:30:11.978Z,22.09
2023-06-12T15:32:47.149Z,21.81
2023-06-12T15:35:17.836Z,21.86
2023-06-12T15:37:48.102Z,21.96
2023-06-12T15:40:18.727Z,21.71
2023-06-12T15:42:49.083Z,22.37
2023-06-12T15:45:19.564Z,21.91
2023-06-12T15:47:53.022Z,21.89
2023-06-12T15:50:23.162Z,22.00
2023-06-12T15:52:53.218Z,21.91
2023-06-12T15:55:23.340Z,22.33
2023-06-12T15:57:53.409Z,21.94
2023-06-12T16:00:24.475Z,22.01
2023-06-12T16:02:57.162Z,21.79
2023-06-12T16:05:27.363Z,22.08
2023-06-12T16:07:57.429Z,22.22
2023-06-12T16:10:31.526Z,22.52
2023-06-12T16:13:01.793Z,21.54
2023-06-12T16:15:31.863Z,21.62
2023-06-12T16:18:04.764Z,21.24
2023-06-12T16:20:34.886Z,21.17
2023-06-12T16:23:04.979Z,21.37
2023-06-12T16:25:35.471Z,20.51
2023-06-12T16:28:05.599Z,20.26
2023-06-12T16:30:36.342Z,19.42
2023-06-12T16:33:10.787Z,19.07
2023-06-12T16:35:40.959Z,19.34
2023-06-12T16:38:11.301Z,18.92
2023-06-12T16:40:41.962Z,19.13
2023-06-12T16:43:12.320Z,18.58
2023-06-12T16:45:42.527Z,17.54
2023-06-12T16:48:15.342Z,17.23
2023-06-12T16:50:45.514Z,17.47
2023-06-12T16:53:15.686Z,19.60
2023-06-12T16:55:45.890Z,20.38
2023-06-12T16:58:16.738Z,21.12
2023-06-12T17:00:46.849Z,20.78
2023-06-12T17:03:19.799Z,21.03
2023-06-12T17:05:49.964Z,20.53
2023-06-12T17:08:20.143Z,21.36
2023-06-12T17:10:50.324Z,21.74
2023-06-12T17:13:21.024Z,21.65
2023-06-12T17:15:51.685Z,21.51
2023-06-12T17:18:24.312Z,21.20
2023-06-12T17:20:54.351Z,21.63
2023-06-12T17:23:24.554Z,21.63
2023-06-12T17:25:54.598Z,22.47
2023-06-12T17:28:25.284Z,22.53
2023-06-12T17:30:55.391Z,22.32
2023-06-12T17:33:28.078Z,22.99
2023-06-12T17:36:00.576Z,24.94
2023-06-12T17:38:30.618Z,23.62
2023-06-12T17:41:00.662Z,23.84
2023-06-12T17:43:30.698Z,23.84
2023-06-12T17:46:00.975Z,24.55
2023-06-12T17:48:34.118Z,26.49
2023-06-12T17:51:04.594Z,24.71
2023-06-12T17:53:34.695Z,25.15
2023-06-12T17:56:04.882Z,24.23
2023-06-12T17:58:34.897Z,24.27
2023-06-12T18:01:04.934Z,24.20
2023-06-12T18:03:37.712Z,23.56
2023-06-12T18:06:08.052Z,25.25
2023-06-12T18:08:38.527Z,24.69
2023-06-12T18:11:09.440Z,25.19
2023-06-12T18:13:39.393Z,24.88
2023-06-12T18:16:09.496Z,25.44
2023-06-12T18:18:42.320Z,26.33
2023-06-12T18:21:12.604Z,25.78
2023-06-12T18:23:43.644Z,25.50
2023-06-12T18:26:13.782Z,25.93
2023-06-12T18:28:44.374Z,25.56
2023-06-12T18:31:14.805Z,26.39
2023-06-12T18:33:47.504Z,26.21
2023-06-12T18:36:19.047Z,25.77
2023-06-12T18:38:49.613Z,26.71
2023-06-12T18:41:22.269Z,27.14
2023-06-12T18:43:53.264Z,27.34
2023-06-12T18:46:26.504Z,27.02
2023-06-12T18:48:59.210Z,27.49
2023-06-12T18:51:29.263Z,27.98
2023-06-12T18:53:59.434Z,27.55
2023-06-12T18:56:34.045Z,28.05
2023-06-12T18:59:04.229Z,28.21
2023-06-12T19:01:34.316Z,28.40
2023-06-12T19:04:07.640Z,28.40
2023-06-12T19:06:38.933Z,27.94
2023-06-12T19:09:09.313Z,28.42
2023-06-12T19:18:12.734Z,28.29
2023-06-12T19:20:59.473Z,28.69
2023-06-12T19:23:29.809Z,29.67
2023-06-12T19:25:59.967Z,29.45
2023-06-12T19:28:30.300Z,29.58
2023-06-12T19:31:00.633Z,29.27
2023-06-12T19:33:30.825Z,29.37
2023-06-12T19:36:05.084Z,29.72
2023-06-12T19:38:35.394Z,29.84
2023-06-12T19:41:05.641Z,29.83
2023-06-12T19:43:35.910Z,30.15
2023-06-12T19:46:06.256Z,30.44
2023-06-12T19:48:36.487Z,30.00
2023-06-12T19:51:09.211Z,30.65
2023-06-12T19:53:39.299Z,30.47
2023-06-12T19:56:09.821Z,30.49
2023-06-12T19:58:39.976Z,30.52
2023-06-12T20:01:10.265Z,31.00
2023-06-12T20:03:40.353Z,30.59
2023-06-12T20:06:13.285Z,30.86
2023-06-12T20:08:43.349Z,30.97
2023-06-12T20:11:13.869Z,31.23
2023-06-12T20:13:46.715Z,31.33
2023-06-12T20:16:17.176Z,31.53
2023-06-12T20:18:47.400Z,31.53
2023-06-12T20:21:21.205Z,31.29
2023-06-12T20:23:51.283Z,31.30
2023-06-12T20:26:21.616Z,31.55
2023-06-12T20:28:51.832Z,31.72
2023-06-12T20:31:22.043Z,31.81
2023-06-12T20:33:52.281Z,32.42
2023-06-12T20:36:25.130Z,31.86
2023-06-12T20:38:55.276Z,32.05
2023-06-12T20:41:25.290Z,31.68
2023-06-12T20:43:55.402Z,31.75
2023-06-12T20:46:25.509Z,31.71
2023-06-12T20:48:56.088Z,32.17
2023-06-12T20:51:29.457Z,32.16
2023-06-12T20:54:00.195Z,32.27
2023-06-12T20:56:30.722Z,32.12
2023-06-12T20:59:00.970Z,32.55
2023-06-12T21:01:31.202Z,32.54
2023-06-12T21:04:01.617Z,32.37
2023-06-12T21:06:34.391Z,32.46
2023-06-12T21:09:05.202Z,32.87
2023-06-12T21:11:37.139Z,32.79
2023-06-12T21:14:09.054Z,32.83
2023-06-12T21:16:41.279Z,33.38
2023-06-12T21:19:13.559Z,33.14
2023-06-12T21:21:46.272Z,33.30
2023-06-12T21:24:17.752Z,33.88
2023-06-12T21:26:48.069Z,33.98
2023-06-12T21:29:18.297Z,33.97
2023-06-12T21:31:48.570Z,33.40
2023-06-12T21:34:18.640Z,34.42
2023-06-12T21:36:51.390Z,34.12
2023-06-12T21:39:22.309Z,33.88
2023-06-12T21:41:52.383Z,34.26
2023-06-12T21:44:22.425Z,34.30
2023-06-12T21:46:52.446Z,34.04
2023-06-12T21:49:22.536Z,34.12
2023-06-12T21:51:56.697Z,34.41
2023-06-12T21:54:26.720Z,34.30
2023-06-12T21:56:56.984Z,34.18
2023-06-12T21:59:27.007Z,34.44
2023-06-12T22:01:57.240Z,34.90
2023-06-12T22:04:27.412Z,34.90
2023-06-12T22:07:00.203Z,34.77
2023-06-12T22:09:30.882Z,35.20
2023-06-12T22:12:00.988Z,34.85
2023-06-12T22:14:31.095Z,34.41
2023-06-12T22:17:01.137Z,34.67
2023-06-12T22:19:31.577Z,35.23
2023-06-12T22:22:04.231Z,35.74
2023-06-12T22:24:34.250Z,35.07
2023-06-12T22:27:04.309Z,35.15
2023-06-12T22:29:36.422Z,35.43
2023-06-12T22:32:07.093Z,35.58
2023-06-12T22:34:37.296Z,35.52
2023-06-12T22:37:10.104Z,35.53
2023-06-12T22:39:40.181Z,35.71
2023-06-12T22:42:11.131Z,36.31
2023-06-12T22:44:41.191Z,35.66
2023-06-12T22:47:12.087Z,35.36
2023-06-12T22:49:44.832Z,35.15
2023-06-12T22:52:18.246Z,35.58
2023-06-12T22:54:48.661Z,35.87
2023-06-12T22:57:18.885Z,35.39
2023-06-12T22:59:48.923Z,35.77
2023-06-12T23:02:18.989Z,35.50
2023-06-12T23:04:49.036Z,36.21
2023-06-12T23:07:21.812Z,36.29
2023-06-12T23:09:54.976Z,35.93
2023-06-12T23:12:24.976Z,35.95
2023-06-12T23:14:55.034Z,36.00
2023-06-12T23:17:25.045Z,36.93
2023-06-12T23:19:55.138Z,36.42
2023-06-12T23:22:30.609Z,36.38
2023-06-12T23:25:03.119Z,36.58
2023-06-12T23:27:35.103Z,36.26
2023-06-12T23:30:05.224Z,36.65
2023-06-12T23:32:35.245Z,35.95
2023-06-12T23:35:05.286Z,35.83
2023-06-12T23:37:37.937Z,36.30
2023-06-12T23:40:10.102Z,36.08
2023-06-12T23:42:40.116Z,35.61
2023-06-12T23:45:11.351Z,35.97
2023-06-12T23:47:41.440Z,36.69
2023-06-12T23:50:12.902Z,36.08
2023-06-12T23:52:45.918Z,37.03
2023-06-12T23:55:15.922Z,36.79
2023-06-12T23:57:46.080Z,36.33
